Latest Weather Observations for Omeo

IDV60801

Issued at 9:05 am EST Thursday 28 August 2014 (issued every 30 minutes, with the page automatically refreshed every 10 minutes)

About weather observations | Map of weather stations | Latest weather observations for VIC | Other Formats
Station Details ID: 083090 Name: OMEO Lat: -37.10 Lon: 147.60 Height: 689.8 m
Data from the previous 72 hours. | See also: Recent months at Omeo
Date/Time
EST
Temp
°C
App
Temp
°C
Dew
Point
Rel
Hum
%
Delta-T
°C
Wind Press
QNH
hPa
Press
MSL
hPa
Rain
since 9 am
mm
Dir
 
Spd
km/h
Gust
km/h
Spd
kts
Gust
kts
28/09:00am 2.7 -0.3 2.3 97 0.2 NNW 7 9 4 5 1030.1 1031.1 0.2
28/08:30am 0.9 -1.0 0.6 98 0.1 NNW 0 0 0 0 1030.2 1031.2 0.2
28/08:00am -0.8 -3.3 -1.1 98 0.1 WNW 2 6 1 3 1030.2 1031.2 0.2
28/07:30am -1.2 -3.4 -1.5 98 0.1 CALM 0 0 0 0 1030.0 1031.0 0.0
28/07:00am -1.9 -4.2 -2.3 97 0.1 CALM 0 0 0 0 1029.6 1030.6 0.0
28/06:30am -1.2 -3.4 -1.6 97 0.1 CALM 0 0 0 0 1029.5 1030.5 0.0
28/06:00am -1.1 -3.3 -1.5 97 0.1 CALM 0 0 0 0 1029.3 1030.2 0.0
28/05:30am -0.8 -3.0 -1.2 97 0.1 CALM 0 0 0 0 1029.2 1030.1 0.0
28/05:00am -1.1 -3.3 -1.5 97 0.1 CALM 0 0 0 0 1028.7 1029.7 0.0
28/04:30am -0.3 -3.1 -0.7 97 0.1 W 4 6 2 3 1028.6 1029.6 0.0
28/04:00am -0.2 -2.3 -0.6 97 0.1 CALM 0 0 0 0 1028.6 1029.6 0.0
28/03:30am 0.4 -1.6 0.0 97 0.2 CALM 0 0 0 0 1028.7 1029.7 0.0
28/03:00am 0.4 -2.0 -0.2 96 0.2 WNW 2 6 1 3 1028.6 1029.6 0.0
28/02:30am 0.1 -3.1 -0.5 96 0.2 SE 6 6 3 3 1028.5 1029.5 0.0
28/02:00am 0.6 -1.4 0.0 96 0.2 CALM 0 4 0 2 1028.5 1029.5 0.0
28/01:30am 1.1 -0.8 0.4 95 0.3 CALM 0 0 0 0 1028.6 1029.6 0.0
28/01:00am 1.1 -1.2 0.4 95 0.3 E 2 7 1 4 1028.6 1029.6 0.0
28/12:30am 1.7 -1.3 0.8 94 0.4 SW 6 7 3 4 1028.7 1029.7 0.0
28/12:00am 1.4 -0.9 0.4 93 0.4 ESE 2 6 1 3 1028.7 1029.7 0.0
 
Date/Time
EST
Temp
°C
App
Temp
°C
Dew
Point
Rel
Hum
%
Delta-T
°C
Wind Press
QNH
hPa
Press
MSL
hPa
Rain
since 9 am
mm
Dir
 
Spd
km/h
Gust
km/h
Spd
kts
Gust
kts
27/11:30pm 2.1 0.3 1.1 93 0.4 CALM 0 0 0 0 1028.7 1029.7 0.0
27/11:00pm 3.1 0.3 2.1 93 0.4 W 6 7 3 4 1028.6 1029.6 0.0
27/10:30pm 3.1 0.1 1.9 92 0.5 SE 7 11 4 6 1028.7 1029.7 0.0
27/10:00pm 3.0 1.2 1.5 90 0.6 CALM 0 6 0 3 1028.7 1029.7 0.0
27/09:30pm 3.5 0.5 1.9 89 0.7 S 7 11 4 6 1028.6 1029.6 0.0
27/09:00pm 3.8 1.3 1.8 87 0.8 SSE 4 7 2 4 1028.7 1029.7 0.0
27/08:30pm 4.8 3.2 2.5 85 1.0 CALM 0 6 0 3 1028.7 1029.7 0.0
27/08:00pm 6.3 3.1 3.1 80 1.4 S 9 13 5 7 1028.5 1029.5 0.0
27/07:30pm 6.1 3.4 2.9 80 1.4 S 6 9 3 5 1028.3 1029.3 0.0
27/07:00pm 6.9 5.4 3.2 77 1.6 CALM 0 0 0 0 1028.1 1029.0 0.0
27/06:30pm 8.8 6.0 3.4 69 2.4 S 7 9 4 5 1027.8 1028.7 0.0
27/06:00pm 9.2 6.6 3.4 67 2.6 S 6 9 3 5 1027.6 1028.5 0.0
27/05:30pm 10.5 8.8 4.0 64 3.0 SSW 2 7 1 4 1027.4 1028.3 0.0
27/05:00pm 12.3 9.3 4.3 58 3.7 SE 9 13 5 7 1027.1 1028.1 0.0
27/04:30pm 13.0 9.1 3.4 52 4.5 SE 13 20 7 11 1026.8 1027.7 0.0
27/04:00pm 13.6 9.2 4.5 54 4.3 SE 17 28 9 15 1026.6 1027.5 0.0
27/03:30pm 14.3 10.4 5.4 55 4.4 SE 15 22 8 12 1026.6 1027.5 0.0
27/03:00pm 14.5 10.3 5.6 55 4.4 SE 17 24 9 13 1026.6 1027.5 0.0
27/02:30pm 14.2 9.5 5.0 54 4.5 SE 19 26 10 14 1026.6 1027.5 0.0
27/02:00pm 14.5 10.3 5.8 56 4.3 SE 17 28 9 15 1026.6 1027.5 0.0
27/01:30pm 14.3 10.0 5.1 54 4.5 SE 17 28 9 15 1026.7 1027.6 0.0
27/01:00pm 14.3 9.9 4.9 53 4.5 SE 17 26 9 14 1026.9 1027.9 0.0
27/12:30pm 14.7 11.4 6.3 57 4.2 ESE 13 20 7 11 1027.1 1028.1 0.0
27/12:00pm 14.1 10.8 6.5 60 3.8 ESE 13 22 7 12 1027.5 1028.4 0.0
27/11:30am 13.9 11.3 6.0 59 3.9 SE 9 17 5 9 1027.9 1028.8 0.0
27/11:00am 12.7 11.0 5.8 63 3.3 ESE 4 9 2 5 1028.1 1029.0 0.0
27/10:30am 11.8 10.3 5.0 63 3.2 NNE 2 7 1 4 1028.3 1029.3 0.0
27/10:00am 9.5 8.3 4.5 71 2.3 CALM 0 0 0 0 1028.5 1029.5 0.0
27/09:30am 8.2 6.8 5.5 83 1.3 N 2 6 1 3 1028.6 1029.6 0.0
27/09:00am 6.5 5.2 5.9 96 0.3 NW 2 6 1 3 1028.5 1029.5 0.2
27/08:30am 3.8 1.6 3.5 98 0.1 W 4 7 2 4 1028.5 1029.5 0.2
27/08:00am 1.6 -0.2 1.5 99 0.0 CALM 0 0 0 0 1028.4 1029.4 0.0
27/07:30am -0.2 -2.3 -0.5 98 0.1 CALM 0 0 0 0 1028.2 1029.2 0.0
27/07:00am -1.2 -4.5 -1.5 98 0.1 SSE 6 7 3 4 1027.8 1028.7 0.0
27/06:30am -0.8 -3.3 -1.1 98 0.1 SSE 2 6 1 3 1027.5 1028.4 0.0
27/06:00am -0.4 -2.5 -0.7 98 0.1 CALM 0 0 0 0 1027.2 1028.2 0.0
27/05:30am -1.0 -3.2 -1.3 98 0.1 CALM 0 0 0 0 1027.2 1028.2 0.0
27/05:00am -0.7 -2.8 -1.0 98 0.1 CALM 0 0 0 0 1027.2 1028.2 0.0
27/04:30am 0.1 -2.7 -0.2 98 0.1 SE 4 7 2 4 1027.1 1028.1 0.0
27/04:00am 0.4 -1.6 0.1 98 0.1 CALM 0 0 0 0 1027.2 1028.2 0.0
27/03:30am 0.5 -2.6 0.2 98 0.1 SSE 6 7 3 4 1027.5 1028.4 0.0
27/03:00am 0.9 -2.3 0.5 97 0.2 SE 7 9 4 5 1027.6 1028.5 0.0
27/02:30am 1.5 -1.6 1.1 97 0.2 SE 7 9 4 5 1027.7 1028.6 0.0
27/02:00am 2.3 -0.5 1.9 97 0.2 SE 6 6 3 3 1027.9 1028.8 0.0
27/01:30am 2.7 -0.1 2.3 97 0.2 SE 6 7 3 4 1028.1 1029.0 0.0
27/01:00am 3.4 1.9 3.0 97 0.2 CALM 0 6 0 3 1028.0 1028.9 0.0
27/12:30am 4.0 2.2 3.6 97 0.2 SSE 2 7 1 4 1028.0 1028.9 0.0
27/12:00am 4.5 3.2 4.1 97 0.2 CALM 0 0 0 0 1028.1 1029.0 0.0
 
Date/Time
EST
Temp
°C
App
Temp
°C
Dew
Point
Rel
Hum
%
Delta-T
°C
Wind Press
QNH
hPa
Press
MSL
hPa
Rain
since 9 am
mm
Dir
 
Spd
km/h
Gust
km/h
Spd
kts
Gust
kts
26/11:30pm 5.3 3.0 4.7 96 0.3 SE 6 9 3 5 1028.2 1029.2 0.0
26/11:00pm 6.3 5.3 5.7 96 0.3 CALM 0 6 0 3 1028.2 1029.2 0.0
26/10:30pm 7.1 5.2 6.5 96 0.3 SSW 6 7 3 4 1028.4 1029.4 0.0
26/10:00pm 6.9 4.7 6.3 96 0.3 S 7 9 4 5 1028.5 1029.5 0.0
26/09:30pm 7.4 5.5 6.7 95 0.3 S 6 9 3 5 1028.4 1029.4 0.0
26/09:00pm 7.8 5.8 7.1 95 0.3 S 7 11 4 6 1028.3 1029.3 0.0
26/08:30pm 8.1 6.1 7.2 94 0.4 S 7 13 4 7 1028.2 1029.2 0.0
26/08:00pm 8.6 6.9 7.5 93 0.5 S 6 9 3 5 1028.0 1028.9 0.0
26/07:30pm 9.3 6.8 8.1 92 0.6 SSW 11 15 6 8 1027.9 1028.8 0.0
26/07:00pm 9.4 7.6 7.8 90 0.8 WSW 7 11 4 6 1027.7 1028.6 0.0
26/06:30pm 9.9 6.5 7.7 86 1.1 SE 15 22 8 12 1027.1 1028.1 0.0
26/06:00pm 10.6 7.2 7.5 81 1.5 SE 15 22 8 12 1027.0 1028.0 0.0
26/05:30pm 11.4 8.4 7.7 78 1.9 SE 13 22 7 12 1026.8 1027.7 0.0
26/05:00pm 11.4 8.9 6.5 72 2.4 SSE 9 15 5 8 1026.4 1027.3 0.0
26/04:30pm 11.6 9.1 6.5 71 2.5 SSE 9 15 5 8 1026.3 1027.2 0.0
26/04:00pm 13.5 9.9 6.6 63 3.4 SE 15 22 8 12 1026.2 1027.1 0.0
26/03:30pm 14.6 11.0 8.3 66 3.3 SE 17 26 9 14 1026.0 1026.9 0.0
26/03:00pm 12.8 8.9 7.3 69 2.8 SE 17 24 9 13 1026.2 1027.1 0.0
26/02:30pm 14.3 10.2 7.8 65 3.3 SE 19 28 10 15 1026.2 1027.1 0.0
26/02:00pm 14.9 11.1 7.7 62 3.7 SE 17 22 9 12 1026.3 1027.2 0.0
26/01:30pm 12.7 9.8 6.5 66 3.1 SE 11 19 6 10 1026.6 1027.5 0.0
26/01:00pm 13.6 10.8 6.9 64 3.4 SE 11 22 6 12 1026.9 1027.9 0.0
26/12:30pm 13.7 11.1 7.9 68 3.0 SSE 11 19 6 10 1027.5 1028.4 0.0
26/12:00pm 14.1 11.2 8.1 67 3.1 SE 13 20 7 11 1027.7 1028.6 0.0
26/11:30am 12.4 9.7 7.3 71 2.6 SE 11 17 6 9 1028.0 1028.9 0.0
26/11:00am 12.8 10.4 8.5 75 2.2 SE 11 19 6 10 1028.3 1029.3 0.0
26/10:30am 11.8 9.0 8.6 81 1.6 SE 13 20 7 11 1028.6 1029.6 0.0
26/10:00am 10.9 8.0 8.0 82 1.5 SE 13 20 7 11 1028.7 1029.7 0.0
26/09:30am 10.6 8.1 8.4 86 1.1 SE 11 19 6 10 1028.8 1029.8 0.0
26/09:00am 9.8 7.4 8.7 93 0.6 SE 11 17 6 9 1028.7 1029.7 0.4
26/08:30am 8.6 6.8 8.0 96 0.3 SSE 7 13 4 7 1028.7 1029.7 0.4
26/08:00am 7.8 6.4 7.1 95 0.3 E 4 9 2 5 1028.6 1029.6 0.4
26/07:30am 7.9 6.1 7.0 94 0.4 S 6 11 3 6 1028.1 1029.0 0.4
26/07:00am 7.8 5.4 6.9 94 0.4 S 9 15 5 8 1028.0 1028.9 0.4
26/06:30am 7.8 5.8 6.9 94 0.4 S 7 13 4 7 1027.7 1028.6 0.4
26/06:00am 7.7 5.9 7.0 95 0.3 SE 6 7 3 4 1027.6 1028.5 0.4
26/05:30am 7.7 5.3 7.0 95 0.3 SSW 9 15 5 8 1027.4 1028.3 0.4
26/05:00am 7.6 5.2 6.9 95 0.3 S 9 13 5 7 1027.4 1028.3 0.4
26/04:30am 7.5 5.4 6.8 95 0.3 SE 7 9 4 5 1027.2 1028.2 0.0
26/04:00am 7.7 5.6 6.8 94 0.4 S 7 11 4 6 1027.2 1028.2 0.0
26/03:30am 7.5 5.1 6.8 95 0.3 SSE 9 13 5 7 1027.2 1028.2 0.0
26/03:00am 7.5 5.4 6.6 94 0.4 SSE 7 13 4 7 1027.2 1028.2 0.0
26/02:30am 7.4 4.9 6.5 94 0.4 SSE 9 13 5 7 1027.2 1028.2 0.0
26/02:00am 7.3 5.1 6.2 93 0.5 SSE 7 11 4 6 1027.5 1028.4 0.0
26/01:30am 7.3 5.1 6.2 93 0.5 S 7 13 4 7 1027.5 1028.4 0.0
26/01:00am 7.1 5.0 6.0 93 0.5 SSE 6 9 3 5 1027.8 1028.7 0.0
26/12:30am 7.2 4.9 5.8 91 0.7 SSE 7 11 4 6 1027.8 1028.7 0.0
26/12:00am 7.7 5.4 5.8 88 0.9 S 7 13 4 7 1027.8 1028.7 0.0
 
Date/Time
EST
Temp
°C
App
Temp
°C
Dew
Point
Rel
Hum
%
Delta-T
°C
Wind Press
QNH
hPa
Press
MSL
hPa
Rain
since 9 am
mm
Dir
 
Spd
km/h
Gust
km/h
Spd
kts
Gust
kts
25/11:30pm 7.6 5.0 5.9 89 0.8 S 9 13 5 7 1027.7 1028.6 0.0
25/11:00pm 7.6 5.4 6.1 90 0.7 SSE 7 13 4 7 1027.6 1028.5 0.0
25/10:30pm 7.5 5.3 6.1 91 0.7 SSE 7 13 4 7 1027.6 1028.5 0.0
25/10:00pm 7.4 4.8 5.9 90 0.7 SSE 9 17 5 9 1027.6 1028.5 0.0
25/09:30pm 7.7 5.6 6.0 89 0.8 S 6 11 3 6 1027.8 1028.7 0.0
25/09:00pm 7.9 5.8 6.0 88 0.9 SE 6 9 3 5 1027.8 1028.7 0.0
25/08:30pm 7.9 5.3 6.0 88 0.9 SSE 9 17 5 9 1027.7 1028.6 0.0
25/08:00pm 7.9 5.3 6.2 89 0.8 SSE 9 19 5 10 1027.5 1028.4 0.0
25/07:30pm 7.4 4.0 5.7 89 0.8 SSE 13 17 7 9 1027.4 1028.3 0.0
25/07:00pm 7.7 3.6 6.0 89 0.8 SE 17 26 9 14 1027.1 1028.1 0.0
25/06:30pm 7.8 4.1 6.1 89 0.8 SE 15 24 8 13 1027.0 1028.0 0.0
25/06:00pm 7.8 3.3 5.9 88 0.9 SSE 19 28 10 15 1026.4 1027.3 0.0
25/05:30pm 8.5 4.4 6.3 86 1.1 SSE 17 32 9 17 1026.0 1026.9 0.0
25/05:00pm 9.0 4.2 5.6 79 1.6 SSE 20 30 11 16 1025.6 1026.5 0.0
25/04:30pm 9.7 5.4 5.1 73 2.2 SE 17 26 9 14 1025.1 1026.0 0.0
25/04:00pm 10.7 6.6 6.1 73 2.2 SSE 17 28 9 15 1024.9 1025.8 0.0
25/03:30pm 11.4 6.3 5.9 69 2.7 SSE 22 35 12 19 1024.8 1025.7 0.0
25/03:00pm 11.4 6.9 6.3 71 2.5 SSE 19 28 10 15 1024.8 1025.7 0.0
25/02:30pm 11.6 7.8 5.7 67 2.9 SE 15 24 8 13 1024.8 1025.7 0.0
25/02:00pm 11.3 7.3 6.8 74 2.2 SE 17 24 9 13 1025.0 1025.9 0.0
25/01:30pm 11.7 7.4 7.0 73 2.3 SE 19 28 10 15 1025.1 1026.0 0.0
25/01:00pm 10.7 7.8 6.6 76 2.0 SE 11 19 6 10 1025.2 1026.1 0.0
25/12:30pm 10.4 7.4 6.0 74 2.1 ESE 11 19 6 10 1025.6 1026.5 0.0
25/12:00pm 11.1 9.2 6.8 75 2.1 ESE 6 15 3 8 1025.9 1026.8 0.0
25/11:30am 9.8 8.8 7.4 85 1.2 N 2 7 1 4 1026.0 1026.9 0.0
25/11:00am 7.2 5.3 6.5 95 0.3 W 6 9 3 5 1026.2 1027.1 0.0
25/10:30am 6.7 4.7 6.4 98 0.1 NNE 6 9 3 5 1026.5 1027.4 0.0
25/10:00am 4.7 3.1 4.4 98 0.1 SW 2 6 1 3 1026.7 1027.6 0.0
25/09:30am 3.9 1.4 3.8 99 0.0 NW 6 9 3 5 1026.8 1027.7 0.0

Other Formats:

Comma delimited format used in spreadsheet applications
http://www.bom.gov.au/fwo/IDV60801/IDV60801.94908.axf

JavaScript Object Notation format (JSON) in row-major order
http://www.bom.gov.au/fwo/IDV60801/IDV60801.94908.json